Time;durP1;ratioP1;P1;durP2;ratioP2;P2;SDS_P1;SDS_P2;PMS_P1;PMS_P2;Temp;Humidity;BMP_temperature;BMP_pressure;BME280_temperature;BME280_humidity;BME280_pressure;Samples;Min_cycle;Max_cycle;Signal;HPM_P1;HPM_P2
2021/09/20 04:06:34;;;;;;;;;1.75;1.75;;;;;;;;6257764;22;8776;-85
2021/09/20 04:09:01;;;;;;;;;1.25;1.25;;;;;;;;6259883;22;8787;-81
2021/09/20 04:11:39;;;;;;;;;;;;;;;;;;;;;
2021/09/20 04:37:09;;;;;;;;;2.75;2.75;;;;;;;;5943092;24;9631;-89
2021/09/20 04:39:12;;;;;;;;;3.00;2.00;;;;;;;;5938039;24;8780;-88
2021/09/20 04:41:40;;;;;;;;;1.50;1.50;;;;;;;;5984653;23;8851;-87
2021/09/20 04:44:05;;;;;;;;;3.75;2.00;;;;;;;;6144447;22;8725;-88
2021/09/20 04:46:50;;;;;;;;;2.00;2.00;;;;;;;;6233034;22;8812;-89
2021/09/20 04:52:42;;;;;;;;;3.00;3.00;;;;;;;;6195984;22;9585;-89
2021/09/20 05:01:49;;;;;;;;;2.25;1.75;;;;;;;;6112353;23;9660;-88
2021/09/20 05:20:37;;;;;;;;;;;;;;;;;;;;;
2021/09/20 06:01:28;;;;;;;;;3.25;3.25;;;;;;;;6322436;22;8748;-82
2021/09/20 06:03:53;;;;;;;;;2.75;2.75;;;;;;;;6322020;22;8853;-83
2021/09/20 06:06:19;;;;;;;;;4.00;2.00;;;;;;;;6322671;22;8869;-81
2021/09/20 06:08:44;;;;;;;;;5.00;4.00;;;;;;;;6322634;22;8871;-82
2021/09/20 06:11:11;;;;;;;;;2.00;2.00;;;;;;;;6322219;22;8733;-82
2021/09/20 07:08:41;;;;;;;;;4.00;2.00;;;;;;;;6279695;22;8746;-82
2021/09/20 07:11:06;;;;;;;;;5.00;4.25;;;;;;;;6291248;22;8861;-83
2021/09/20 07:13:32;;;;;;;;;5.25;5.00;;;;;;;;6290853;22;8828;-82
2021/09/20 07:15:57;;;;;;;;;3.50;3.50;;;;;;;;6291268;22;8781;-82
2021/09/20 07:18:22;;;;;;;;;3.00;3.00;;;;;;;;6262803;22;8751;-82
2021/09/20 07:20:48;;;;;;;;;4.75;3.50;;;;;;;;6290993;22;8923;-82
2021/09/20 07:23:13;;;;;;;;;9.00;6.75;;;;;;;;6290733;22;8852;-82
2021/09/20 07:25:39;;;;;;;;;6.50;6.50;;;;;;;;6290709;22;8766;-82
2021/09/20 07:28:05;;;;;;;;;8.25;8.25;;;;;;;;6290342;22;8816;-83
2021/09/20 07:40:38;;;;;;;;;13.50;13.00;;;;;;;;6102144;23;8739;-87
2021/09/20 07:43:04;;;;;;;;;12.75;9.75;;;;;;;;6272715;22;8710;-80
2021/09/20 07:45:30;;;;;;;;;6.50;6.00;;;;;;;;6290374;22;8811;-80
2021/09/20 07:47:55;;;;;;;;;6.25;4.25;;;;;;;;6290130;22;8833;-79
2021/09/20 07:50:21;;;;;;;;;8.00;6.75;;;;;;;;6290599;22;8834;-79
2021/09/20 07:52:47;;;;;;;;;12.75;11.25;;;;;;;;6290764;22;8762;-79
2021/09/20 07:55:14;;;;;;;;;10.75;10.00;;;;;;;;6290072;22;9458;-79
2021/09/20 07:57:39;;;;;;;;;11.75;10.00;;;;;;;;6290595;22;8722;-79
2021/09/20 08:00:06;;;;;;;;;9.75;9.50;;;;;;;;6262698;22;8927;-79
2021/09/20 08:02:31;;;;;;;;;12.25;8.25;;;;;;;;6290367;22;8762;-79
2021/09/20 08:04:56;;;;;;;;;4.25;4.25;;;;;;;;6290358;22;8775;-78
2021/09/20 08:07:22;;;;;;;;;7.25;7.25;;;;;;;;6296932;22;8910;-78
2021/09/20 08:09:47;;;;;;;;;5.00;5.00;;;;;;;;6321809;22;8792;-78
2021/09/20 08:12:12;;;;;;;;;7.75;6.50;;;;;;;;6321371;22;8736;-78
2021/09/20 08:14:39;;;;;;;;;8.50;7.75;;;;;;;;6321311;22;8843;-78
2021/09/20 08:17:04;;;;;;;;;12.25;11.50;;;;;;;;6322599;22;8755;-78
2021/09/20 08:19:29;;;;;;;;;12.75;10.50;;;;;;;;6322552;22;8764;-78
2021/09/20 08:21:55;;;;;;;;;11.00;9.25;;;;;;;;6322194;22;8752;-79
2021/09/20 08:24:20;;;;;;;;;9.75;9.00;;;;;;;;6322512;22;8936;-79
2021/09/20 08:26:45;;;;;;;;;8.00;8.00;;;;;;;;6322479;22;8878;-81
2021/09/20 08:29:11;;;;;;;;;6.75;6.75;;;;;;;;6322189;22;8736;-81
2021/09/20 08:31:37;;;;;;;;;9.75;8.75;;;;;;;;6322425;22;8794;-82
2021/09/20 08:34:02;;;;;;;;;13.25;12.00;;;;;;;;6294180;22;8760;-81
2021/09/20 08:36:28;;;;;;;;;4.75;4.75;;;;;;;;6294118;22;8868;-78
2021/09/20 08:38:53;;;;;;;;;8.25;6.75;;;;;;;;6292883;22;8962;-78
2021/09/20 08:41:19;;;;;;;;;9.50;9.00;;;;;;;;6322401;22;8772;-78
2021/09/20 08:43:45;;;;;;;;;5.75;5.00;;;;;;;;6322162;22;8921;-79
2021/09/20 08:46:11;;;;;;;;;6.50;6.25;;;;;;;;6322631;22;8781;-79
2021/09/20 08:48:43;;;;;;;;;7.00;6.00;;;;;;;;6322218;22;8737;-78
2021/09/20 08:51:09;;;;;;;;;6.50;6.50;;;;;;;;6322320;22;8808;-79
2021/09/20 08:53:34;;;;;;;;;2.00;2.00;;;;;;;;6322501;22;9560;-79
2021/09/20 08:56:00;;;;;;;;;6.75;6.75;;;;;;;;6322072;22;8733;-78
2021/09/20 08:58:26;;;;;;;;;3.00;3.00;;;;;;;;6322264;22;8760;-78
2021/09/20 09:00:51;;;;;;;;;4.25;3.50;;;;;;;;6322019;22;8741;-79
2021/09/20 09:03:25;;;;;;;;;6.25;6.25;;;;;;;;6322078;22;8909;-78
2021/09/20 09:05:50;;;;;;;;;6.75;6.00;;;;;;;;6321901;22;8791;-78
2021/09/20 09:08:18;;;;;;;;;11.50;9.75;;;;;;;;6321650;22;8760;-78
2021/09/20 09:10:44;;;;;;;;;8.50;7.00;;;;;;;;6321820;22;8681;-78
2021/09/20 09:13:11;;;;;;;;;5.00;4.25;;;;;;;;6321446;22;8845;-81
2021/09/20 09:15:37;;;;;;;;;10.00;9.00;;;;;;;;6321885;22;8737;-81
2021/09/20 09:18:04;;;;;;;;;5.25;3.25;;;;;;;;6321795;22;8747;-81
2021/09/20 09:20:32;;;;;;;;;6.50;5.25;;;;;;;;6321708;22;8752;-81
2021/09/20 09:23:08;;;;;;;;;7.75;7.75;;;;;;;;6322260;22;8752;-81
2021/09/20 09:25:48;;;;;;;;;5.75;5.75;;;;;;;;6321466;22;8835;-81
2021/09/20 09:28:16;;;;;;;;;7.50;7.00;;;;;;;;6321901;22;8697;-81
2021/09/20 09:30:43;;;;;;;;;5.50;4.00;;;;;;;;6322327;22;8862;-81
2021/09/20 09:36:17;;;;;;;;;4.00;4.00;;;;;;;;6165567;23;8806;-83
2021/09/20 09:39:18;;;;;;;;;7.00;5.00;;;;;;;;6181254;22;8748;-86
2021/09/20 09:41:44;;;;;;;;;4.50;3.25;;;;;;;;6321770;22;8724;-83
2021/09/20 09:44:13;;;;;;;;;5.00;5.00;;;;;;;;6294031;22;8853;-84
2021/09/20 09:46:40;;;;;;;;;3.00;3.00;;;;;;;;6321677;22;9642;-82
2021/09/20 09:49:16;;;;;;;;;4.75;2.50;;;;;;;;6321648;22;8740;-83
2021/09/20 09:51:53;;;;;;;;;3.75;3.75;;;;;;;;6322087;22;8838;-83
2021/09/20 09:54:24;;;;;;;;;7.00;5.25;;;;;;;;6321876;22;8732;-82
2021/09/20 09:56:49;;;;;;;;;6.00;4.00;;;;;;;;6321934;22;8755;-82
2021/09/20 09:59:25;;;;;;;;;3.00;1.75;;;;;;;;6293917;22;8756;-82
2021/09/20 10:01:50;;;;;;;;;6.00;5.25;;;;;;;;6321604;22;8882;-83
2021/09/20 10:04:30;;;;;;;;;7.00;7.00;;;;;;;;6293679;22;8760;-82
2021/09/20 10:06:57;;;;;;;;;5.00;5.00;;;;;;;;6321537;22;8762;-83
2021/09/20 10:09:27;;;;;;;;;5.75;5.75;;;;;;;;6293953;22;8693;-83
2021/09/20 10:11:54;;;;;;;;;2.50;2.50;;;;;;;;6320844;22;8740;-83
2021/09/20 10:14:20;;;;;;;;;2.75;2.75;;;;;;;;6321688;22;8878;-83
2021/09/20 10:16:48;;;;;;;;;5.50;4.00;;;;;;;;6321941;22;8740;-83
2021/09/20 10:19:14;;;;;;;;;4.00;4.00;;;;;;;;6321658;22;8740;-82
2021/09/20 10:21:39;;;;;;;;;10.75;10.75;;;;;;;;6321714;22;8802;-82
2021/09/20 10:24:04;;;;;;;;;7.00;7.00;;;;;;;;6322010;22;8740;-82
2021/09/20 10:26:30;;;;;;;;;1.75;1.75;;;;;;;;6321751;22;8787;-82
2021/09/20 10:28:56;;;;;;;;;2.50;2.50;;;;;;;;6321079;22;8752;-81
2021/09/20 10:31:23;;;;;;;;;2.00;1.00;;;;;;;;6321708;22;8826;-82
2021/09/20 10:33:49;;;;;;;;;4.50;4.50;;;;;;;;6321799;22;8737;-84
2021/09/20 10:36:14;;;;;;;;;9.00;8.50;;;;;;;;6322028;22;8814;-82
2021/09/20 10:38:50;;;;;;;;;5.25;5.25;;;;;;;;6321614;22;8752;-82
2021/09/20 10:41:17;;;;;;;;;2.25;2.25;;;;;;;;6321517;22;8720;-83
2021/09/20 10:43:44;;;;;;;;;5.00;5.00;;;;;;;;6321433;22;8689;-85
2021/09/20 10:46:32;;;;;;;;;;;;;;;;;;;;;
2021/09/20 10:48:59;;;;;;;;;8.00;7.75;;;;;;;;6319498;22;35111;-82
2021/09/20 10:54:33;;;;;;;;;5.50;4.00;;;;;;;;6303906;22;8735;-83
2021/09/20 10:57:26;;;;;;;;;;;;;;;;;;;;;
2021/09/20 11:00:33;;;;;;;;;7.00;7.00;;;;;;;;6320704;22;35934;-83
2021/09/20 11:06:44;;;;;;;;;5.00;4.00;;;;;;;;6298704;22;8701;-83
2021/09/20 11:09:25;;;;;;;;;1.50;1.00;;;;;;;;6140787;23;8799;-84
2021/09/20 11:12:20;;;;;;;;;3.75;3.75;;;;;;;;6170311;22;9630;-84
2021/09/20 11:15:06;;;;;;;;;7.50;6.75;;;;;;;;6321761;22;8732;-85
2021/09/20 11:17:31;;;;;;;;;3.00;2.75;;;;;;;;6320390;22;8712;-83
2021/09/20 11:19:58;;;;;;;;;6.75;6.50;;;;;;;;6320915;22;8765;-81
2021/09/20 11:22:26;;;;;;;;;5.25;5.25;;;;;;;;6321677;22;8745;-81
2021/09/20 11:24:53;;;;;;;;;2.75;2.75;;;;;;;;6321553;22;8771;-81
2021/09/20 11:27:21;;;;;;;;;1.75;1.75;;;;;;;;6321280;22;8765;-81
2021/09/20 11:29:54;;;;;;;;;4.00;4.00;;;;;;;;6321767;22;8770;-81
2021/09/20 11:32:19;;;;;;;;;2.75;2.50;;;;;;;;6131606;22;4357666;-81
2021/09/20 11:34:48;;;;;;;;;4.50;3.00;;;;;;;;6321813;22;8912;-81
2021/09/20 11:37:22;;;;;;;;;6.25;4.75;;;;;;;;6321406;22;8760;-81
2021/09/20 11:39:47;;;;;;;;;7.50;5.00;;;;;;;;6321713;22;8787;-81
2021/09/20 11:42:14;;;;;;;;;6.00;4.50;;;;;;;;6321385;22;8736;-81
2021/09/20 11:44:47;;;;;;;;;9.00;7.25;;;;;;;;6321331;22;8748;-81
2021/09/20 11:47:13;;;;;;;;;7.25;6.75;;;;;;;;6320992;22;8834;-81
2021/09/20 11:49:38;;;;;;;;;6.75;6.75;;;;;;;;6321510;22;9558;-81
2021/09/20 11:52:04;;;;;;;;;7.00;5.75;;;;;;;;6321340;22;8728;-81
2021/09/20 11:54:31;;;;;;;;;6.75;6.00;;;;;;;;6293428;22;9318;-81
2021/09/20 11:57:15;;;;;;;;;5.75;5.75;;;;;;;;6320991;22;8771;-81
2021/09/20 11:59:41;;;;;;;;;7.25;7.25;;;;;;;;6321472;22;8741;-81
2021/09/20 12:02:07;;;;;;;;;3.00;3.00;;;;;;;;6321353;22;8872;-81
2021/09/20 12:04:48;;;;;;;;;4.75;4.75;;;;;;;;6321439;22;8748;-81
2021/09/20 12:07:26;;;;;;;;;6.25;5.00;;;;;;;;6292994;22;8783;-81
2021/09/20 12:09:53;;;;;;;;;13.75;11.00;;;;;;;;6321390;22;8787;-81
2021/09/20 12:12:18;;;;;;;;;4.50;4.25;;;;;;;;6321341;22;8732;-81
2021/09/20 12:14:54;;;;;;;;;4.75;4.25;;;;;;;;6293250;22;8776;-81
2021/09/20 12:17:20;;;;;;;;;7.00;6.00;;;;;;;;6320942;22;8701;-82
2021/09/20 12:19:55;;;;;;;;;3.75;3.75;;;;;;;;6320350;22;8819;-83
2021/09/20 12:22:36;;;;;;;;;4.50;3.75;;;;;;;;6292095;22;8748;-82
2021/09/20 12:25:17;;;;;;;;;7.75;7.25;;;;;;;;6321350;22;8700;-83
2021/09/20 12:27:42;;;;;;;;;6.75;4.00;;;;;;;;6321383;22;8756;-82
2021/09/20 12:30:08;;;;;;;;;3.00;3.00;;;;;;;;6320946;22;8754;-82
2021/09/20 12:32:33;;;;;;;;;6.75;6.75;;;;;;;;6321077;22;8717;-82
2021/09/20 12:34:59;;;;;;;;;2.75;1.75;;;;;;;;6321253;22;8836;-82
2021/09/20 12:37:25;;;;;;;;;1.75;1.00;;;;;;;;6293491;22;8870;-82
2021/09/20 12:39:50;;;;;;;;;12.50;8.00;;;;;;;;6320842;22;8737;-82
2021/09/20 12:42:21;;;;;;;;;6.50;6.50;;;;;;;;6320829;22;8783;-82
2021/09/20 12:44:48;;;;;;;;;5.75;3.50;;;;;;;;6292872;22;8756;-83
2021/09/20 12:47:18;;;;;;;;;4.00;4.00;;;;;;;;5999629;22;7359385;-82
2021/09/20 12:49:59;;;;;;;;;4.00;4.00;;;;;;;;6292865;22;8737;-82
2021/09/20 12:52:26;;;;;;;;;5.25;5.25;;;;;;;;6321222;22;8756;-82
2021/09/20 12:54:52;;;;;;;;;7.25;6.25;;;;;;;;5875698;22;10209761;-82
2021/09/20 12:57:18;;;;;;;;;7.00;6.00;;;;;;;;5933185;22;8858721;-83
2021/09/20 12:59:44;;;;;;;;;9.50;6.50;;;;;;;;6318143;22;11305;-82
2021/09/20 13:02:12;;;;;;;;;5.25;5.00;;;;;;;;6320868;22;8713;-82
2021/09/20 13:04:38;;;;;;;;;7.00;6.00;;;;;;;;6322183;22;8747;-82
2021/09/20 13:07:10;;;;;;;;;3.00;3.00;;;;;;;;6321930;22;8833;-81
2021/09/20 13:09:36;;;;;;;;;8.50;8.50;;;;;;;;6322636;22;8841;-81
2021/09/20 13:12:14;;;;;;;;;6.25;5.00;;;;;;;;6322383;22;8729;-82
2021/09/20 13:14:57;;;;;;;;;6.00;5.25;;;;;;;;6322634;22;8717;-81
2021/09/20 13:17:30;;;;;;;;;5.00;5.00;;;;;;;;6321814;22;8749;-81
2021/09/20 13:20:03;;;;;;;;;6.50;6.50;;;;;;;;6001545;22;7358585;-81
2021/09/20 13:22:45;;;;;;;;;6.00;6.00;;;;;;;;6104998;22;8859436;-81
2021/09/20 13:25:24;;;;;;;;;4.00;3.25;;;;;;;;6322737;22;8677;-81
2021/09/20 13:27:55;;;;;;;;;1.75;1.25;;;;;;;;6322671;22;8956;-81
2021/09/20 13:30:20;;;;;;;;;8.75;6.75;;;;;;;;6323163;22;8737;-80
2021/09/20 13:32:45;;;;;;;;;5.75;5.75;;;;;;;;6322564;22;8745;-81
2021/09/20 13:35:43;;;;;;;;;6.00;4.25;;;;;;;;6294122;22;8760;-81
2021/09/20 13:38:09;;;;;;;;;7.00;6.00;;;;;;;;6237283;22;8822;-81
2021/09/20 13:40:35;;;;;;;;;7.25;6.50;;;;;;;;6322658;22;8721;-81
2021/09/20 13:43:00;;;;;;;;;4.00;4.00;;;;;;;;6322244;22;8752;-81
2021/09/20 13:45:25;;;;;;;;;7.25;7.00;;;;;;;;6322604;22;9444;-81
2021/09/20 13:47:51;;;;;;;;;6.50;4.00;;;;;;;;6322294;22;8792;-81
2021/09/20 13:50:17;;;;;;;;;4.00;4.00;;;;;;;;6322611;22;8850;-81
2021/09/20 13:52:43;;;;;;;;;7.25;5.75;;;;;;;;6322825;22;8729;-81
2021/09/20 13:55:09;;;;;;;;;9.00;7.25;;;;;;;;6322859;22;8740;-81
2021/09/20 13:57:35;;;;;;;;;5.25;5.25;;;;;;;;6294361;22;9077;-81
2021/09/20 14:00:00;;;;;;;;;8.50;7.25;;;;;;;;6322544;22;8736;-81
2021/09/20 14:02:26;;;;;;;;;9.75;9.25;;;;;;;;6322225;22;8733;-81
2021/09/20 14:04:52;;;;;;;;;7.50;7.25;;;;;;;;6294164;22;8744;-81
2021/09/20 14:07:18;;;;;;;;;3.00;2.00;;;;;;;;6322222;22;8801;-81
2021/09/20 14:09:44;;;;;;;;;5.00;5.00;;;;;;;;6322782;22;8827;-82
2021/09/20 14:12:09;;;;;;;;;6.50;6.25;;;;;;;;6322356;22;8814;-82
2021/09/20 14:14:34;;;;;;;;;4.75;4.75;;;;;;;;6322037;22;8847;-82
2021/09/20 14:17:00;;;;;;;;;9.00;6.00;;;;;;;;6322057;22;8768;-82
2021/09/20 14:19:26;;;;;;;;;10.25;7.25;;;;;;;;6322552;22;8825;-81
2021/09/20 14:21:51;;;;;;;;;6.25;5.00;;;;;;;;6322240;22;8866;-82
2021/09/20 14:24:17;;;;;;;;;9.25;8.00;;;;;;;;6322694;22;8752;-82
2021/09/20 14:26:42;;;;;;;;;5.50;5.25;;;;;;;;6322335;22;8768;-82
2021/09/20 14:29:07;;;;;;;;;7.75;7.75;;;;;;;;6322407;22;9495;-82
2021/09/20 14:31:33;;;;;;;;;8.00;7.00;;;;;;;;6322541;22;8861;-82
2021/09/20 14:33:58;;;;;;;;;6.75;5.75;;;;;;;;6322439;22;8878;-82
2021/09/20 14:36:24;;;;;;;;;3.50;3.25;;;;;;;;6322412;22;9599;-81
2021/09/20 14:38:49;;;;;;;;;3.50;2.25;;;;;;;;6322835;22;8831;-82
2021/09/20 14:41:15;;;;;;;;;3.25;2.50;;;;;;;;6322554;22;8809;-82
2021/09/20 14:43:40;;;;;;;;;4.25;4.25;;;;;;;;6322142;22;8732;-82
2021/09/20 14:46:06;;;;;;;;;7.50;6.25;;;;;;;;6294217;22;8894;-82
2021/09/20 14:48:33;;;;;;;;;4.50;4.00;;;;;;;;6322303;22;8736;-82
2021/09/20 14:51:00;;;;;;;;;9.00;8.00;;;;;;;;6322301;22;8725;-82
2021/09/20 14:53:25;;;;;;;;;3.75;3.75;;;;;;;;6322300;22;8712;-81
2021/09/20 14:55:51;;;;;;;;;4.00;4.00;;;;;;;;6294430;22;8866;-82
2021/09/20 14:58:17;;;;;;;;;4.00;2.50;;;;;;;;6321982;22;8919;-88
2021/09/20 15:00:42;;;;;;;;;5.00;4.00;;;;;;;;6039561;22;5859304;-88
2021/09/20 15:03:08;;;;;;;;;7.25;7.25;;;;;;;;6066270;22;5858356;-88
2021/09/20 15:05:39;;;;;;;;;8.25;5.50;;;;;;;;6321533;22;9507;-85
2021/09/20 15:08:04;;;;;;;;;6.00;6.00;;;;;;;;6321503;22;8810;-86
2021/09/20 15:10:29;;;;;;;;;5.00;5.00;;;;;;;;6322528;22;8768;-87
2021/09/20 15:12:55;;;;;;;;;8.25;6.75;;;;;;;;6293723;22;8759;-85
2021/09/20 15:15:20;;;;;;;;;3.00;3.00;;;;;;;;6321662;22;8779;-85
2021/09/20 15:17:48;;;;;;;;;6.00;5.50;;;;;;;;6321426;22;8740;-85
2021/09/20 15:20:14;;;;;;;;;4.00;4.00;;;;;;;;6321721;22;8818;-84
2021/09/20 15:22:40;;;;;;;;;5.25;3.75;;;;;;;;6321769;22;8802;-85
2021/09/20 15:25:06;;;;;;;;;6.00;6.00;;;;;;;;6321630;22;8728;-84
2021/09/20 15:27:31;;;;;;;;;6.00;3.00;;;;;;;;6322057;22;8795;-83
2021/09/20 15:29:57;;;;;;;;;2.50;2.00;;;;;;;;6321705;22;8788;-84
2021/09/20 15:32:22;;;;;;;;;5.00;5.00;;;;;;;;6322319;22;8751;-86
2021/09/20 15:34:48;;;;;;;;;4.25;4.00;;;;;;;;6322001;22;8788;-85
2021/09/20 15:37:13;;;;;;;;;2.75;2.75;;;;;;;;6322282;22;8744;-84
2021/09/20 15:39:39;;;;;;;;;6.25;5.00;;;;;;;;6322047;22;8784;-85
2021/09/20 15:42:05;;;;;;;;;4.50;4.00;;;;;;;;6293991;22;8740;-86
2021/09/20 15:44:30;;;;;;;;;3.00;3.00;;;;;;;;6294240;22;8673;-85
2021/09/20 15:46:56;;;;;;;;;3.25;3.25;;;;;;;;6322169;22;8780;-84
2021/09/20 15:49:23;;;;;;;;;2.00;1.25;;;;;;;;6322282;22;8744;-84
2021/09/20 15:51:48;;;;;;;;;10.00;7.00;;;;;;;;6322306;22;8728;-82
2021/09/20 15:54:17;;;;;;;;;8.00;6.75;;;;;;;;6322040;22;8752;-83
2021/09/20 15:56:43;;;;;;;;;5.75;4.50;;;;;;;;6322181;22;8721;-84
2021/09/20 15:59:09;;;;;;;;;4.25;3.75;;;;;;;;6321820;22;8747;-87
2021/09/20 16:01:35;;;;;;;;;2.75;2.75;;;;;;;;6321582;22;8809;-84
2021/09/20 16:04:01;;;;;;;;;6.50;6.50;;;;;;;;6321290;22;8780;-87
2021/09/20 16:06:27;;;;;;;;;6.25;5.00;;;;;;;;6322279;22;8757;-87
2021/09/20 16:08:52;;;;;;;;;2.00;2.00;;;;;;;;6293067;22;8791;-87
2021/09/20 16:11:17;;;;;;;;;3.00;3.00;;;;;;;;6321973;22;8799;-86
2021/09/20 16:13:43;;;;;;;;;3.00;3.00;;;;;;;;6321638;22;8834;-84
2021/09/20 16:16:08;;;;;;;;;7.00;4.00;;;;;;;;6322044;22;9567;-85
2021/09/20 16:18:33;;;;;;;;;4.75;4.00;;;;;;;;6321840;22;8752;-86
2021/09/20 16:20:59;;;;;;;;;3.00;3.00;;;;;;;;6293523;22;9348;-86
2021/09/20 16:23:24;;;;;;;;;2.75;1.75;;;;;;;;6322097;22;8835;-86
2021/09/20 16:25:50;;;;;;;;;3.25;3.00;;;;;;;;6322111;22;8763;-87
2021/09/20 16:28:15;;;;;;;;;4.25;3.75;;;;;;;;6321379;22;8768;-86
2021/09/20 16:30:40;;;;;;;;;2.25;2.25;;;;;;;;6321227;22;9464;-87
2021/09/20 16:33:06;;;;;;;;;5.00;4.50;;;;;;;;6320940;22;8756;-86
2021/09/20 16:35:31;;;;;;;;;2.00;2.00;;;;;;;;6321632;22;8737;-86
2021/09/20 16:37:57;;;;;;;;;5.00;4.25;;;;;;;;6322578;22;8802;-86
2021/09/20 16:40:23;;;;;;;;;1.25;1.25;;;;;;;;6323189;22;8732;-87
2021/09/20 16:42:50;;;;;;;;;2.00;2.00;;;;;;;;6322345;22;8778;-88
2021/09/20 16:45:18;;;;;;;;;2.50;2.50;;;;;;;;6322845;22;8806;-89
2021/09/20 16:47:44;;;;;;;;;7.00;6.00;;;;;;;;6323007;22;8790;-89
2021/09/20 16:50:10;;;;;;;;;4.00;4.00;;;;;;;;6294935;22;8760;-91
2021/09/20 16:52:35;;;;;;;;;3.00;3.00;;;;;;;;6295038;22;8741;-90
2021/09/20 16:55:01;;;;;;;;;4.75;4.75;;;;;;;;6132764;22;4357184;-87
2021/09/20 16:57:26;;;;;;;;;6.25;5.00;;;;;;;;6322407;22;8748;-87
2021/09/20 16:59:52;;;;;;;;;3.50;2.00;;;;;;;;6322626;22;8736;-88
2021/09/20 17:02:17;;;;;;;;;3.00;3.00;;;;;;;;6322739;22;8753;-86
2021/09/20 17:04:43;;;;;;;;;3.25;3.00;;;;;;;;6322638;22;8729;-85
2021/09/20 17:07:09;;;;;;;;;4.00;4.00;;;;;;;;6294766;22;8815;-85
2021/09/20 17:09:35;;;;;;;;;3.25;3.00;;;;;;;;6323102;22;8744;-85
2021/09/20 17:12:02;;;;;;;;;3.25;3.25;;;;;;;;6322820;22;8837;-86
2021/09/20 17:14:27;;;;;;;;;5.50;5.50;;;;;;;;6294686;22;8767;-86
2021/09/20 17:16:53;;;;;;;;;4.25;3.50;;;;;;;;6322490;22;8741;-85
2021/09/20 17:19:18;;;;;;;;;3.00;3.00;;;;;;;;6322681;22;8851;-86
2021/09/20 17:21:43;;;;;;;;;3.00;3.00;;;;;;;;6322446;22;8768;-86
2021/09/20 17:24:09;;;;;;;;;3.25;3.00;;;;;;;;6322640;22;8768;-87
2021/09/20 17:26:35;;;;;;;;;2.00;2.00;;;;;;;;6322154;22;8795;-87
2021/09/20 17:29:00;;;;;;;;;3.00;2.75;;;;;;;;6321993;22;8768;-87
2021/09/20 17:31:28;;;;;;;;;5.00;5.00;;;;;;;;6322074;22;8802;-88
2021/09/20 17:34:15;;;;;;;;;7.00;5.00;;;;;;;;6321232;22;8741;-86
2021/09/20 18:01:46;;;;;;;;;9.00;9.00;;;;;;;;6222886;23;13256;-86
2021/09/20 18:17:27;;;;;;;;;7.50;7.50;;;;;;;;5958201;23;8830;-85
2021/09/20 18:19:55;;;;;;;;;6.00;6.00;;;;;;;;6077915;23;8753;-84
2021/09/20 18:25:35;;;;;;;;;;;;;;;;;;2115533;23;89881933;-85
2021/09/20 18:28:14;;;;;;;;;1.00;1.00;;;;;;;;766021;23;126790514;-84
2021/09/20 18:31:04;;;;;;;;;;;;;;;;;;2;166852497;166852497;-84
2021/09/20 19:14:33;;;;;;;;;13.00;12.67;;;;;;;;3298349;23;23864242;-86
2021/09/20 19:16:58;;;;;;;;;14.00;13.00;;;;;;;;3199348;23;28213520;-87
2021/09/20 23:58:08;;;;;;;;;;;;;;;;;;;;;
